sensor_id;sensor_type;location;lat;lon;timestamp;temperature;humidity
68248;SHT30;55064;49.636;12.164;2023-12-20T00:01:00;3.00;98.72
68248;SHT30;55064;49.636;12.164;2023-12-20T00:03:25;3.01;98.78
68248;SHT30;55064;49.636;12.164;2023-12-20T00:05:50;3.04;98.55
68248;SHT30;55064;49.636;12.164;2023-12-20T00:08:16;3.04;98.66
68248;SHT30;55064;49.636;12.164;2023-12-20T00:10:43;3.07;98.82
68248;SHT30;55064;49.636;12.164;2023-12-20T00:13:08;3.05;98.96
68248;SHT30;55064;49.636;12.164;2023-12-20T00:15:34;3.04;99.18
68248;SHT30;55064;49.636;12.164;2023-12-20T00:17:59;3.04;99.11
68248;SHT30;55064;49.636;12.164;2023-12-20T00:20:26;3.05;99.24
68248;SHT30;55064;49.636;12.164;2023-12-20T00:22:51;3.07;99.37
68248;SHT30;55064;49.636;12.164;2023-12-20T00:25:17;3.10;99.29
68248;SHT30;55064;49.636;12.164;2023-12-20T00:27:43;3.08;99.50
68248;SHT30;55064;49.636;12.164;2023-12-20T00:30:09;3.11;99.41
68248;SHT30;55064;49.636;12.164;2023-12-20T00:32:35;3.14;99.29
68248;SHT30;55064;49.636;12.164;2023-12-20T00:35:00;3.17;99.27
68248;SHT30;55064;49.636;12.164;2023-12-20T00:37:26;3.18;99.09
68248;SHT30;55064;49.636;12.164;2023-12-20T00:39:51;3.19;99.33
68248;SHT30;55064;49.636;12.164;2023-12-20T00:42:16;3.18;99.17
68248;SHT30;55064;49.636;12.164;2023-12-20T00:44:42;3.17;99.50
68248;SHT30;55064;49.636;12.164;2023-12-20T00:47:07;3.15;99.53
68248;SHT30;55064;49.636;12.164;2023-12-20T00:49:32;3.17;99.40
68248;SHT30;55064;49.636;12.164;2023-12-20T00:51:58;3.19;99.41
68248;SHT30;55064;49.636;12.164;2023-12-20T00:54:23;3.19;99.53
68248;SHT30;55064;49.636;12.164;2023-12-20T00:56:49;3.19;99.53
68248;SHT30;55064;49.636;12.164;2023-12-20T00:59:16;3.22;99.54
68248;SHT30;55064;49.636;12.164;2023-12-20T01:01:41;3.24;99.54
68248;SHT30;55064;49.636;12.164;2023-12-20T01:04:07;3.27;99.40
68248;SHT30;55064;49.636;12.164;2023-12-20T01:06:33;3.25;99.48
68248;SHT30;55064;49.636;12.164;2023-12-20T01:08:58;3.24;99.53
68248;SHT30;55064;49.636;12.164;2023-12-20T01:11:23;3.22;99.88
68248;SHT30;55064;49.636;12.164;2023-12-20T01:13:49;3.27;99.85
68248;SHT30;55064;49.636;12.164;2023-12-20T01:16:14;3.31;99.70
68248;SHT30;55064;49.636;12.164;2023-12-20T01:18:39;3.29;99.67
68248;SHT30;55064;49.636;12.164;2023-12-20T01:21:05;3.22;99.97
68248;SHT30;55064;49.636;12.164;2023-12-20T01:23:31;3.21;99.85
68248;SHT30;55064;49.636;12.164;2023-12-20T01:25:57;3.24;99.92
68248;SHT30;55064;49.636;12.164;2023-12-20T01:28:25;3.21;99.99
68248;SHT30;55064;49.636;12.164;2023-12-20T01:30:50;3.24;99.99
68248;SHT30;55064;49.636;12.164;2023-12-20T01:33:15;3.27;99.99
68248;SHT30;55064;49.636;12.164;2023-12-20T01:35:41;3.29;99.99
68248;SHT30;55064;49.636;12.164;2023-12-20T01:38:06;3.25;99.99
68248;SHT30;55064;49.636;12.164;2023-12-20T01:40:32;3.22;99.99
68248;SHT30;55064;49.636;12.164;2023-12-20T01:43:10;3.27;99.99
68248;SHT30;55064;49.636;12.164;2023-12-20T01:45:37;3.27;99.99
68248;SHT30;55064;49.636;12.164;2023-12-20T01:48:04;3.28;99.99
68248;SHT30;55064;49.636;12.164;2023-12-20T01:50:31;3.28;99.99
68248;SHT30;55064;49.636;12.164;2023-12-20T01:53:01;3.32;99.99
68248;SHT30;55064;49.636;12.164;2023-12-20T01:55:29;3.28;99.99
68248;SHT30;55064;49.636;12.164;2023-12-20T01:57:55;3.31;99.99
68248;SHT30;55064;49.636;12.164;2023-12-20T02:00:21;3.27;99.99
68248;SHT30;55064;49.636;12.164;2023-12-20T02:02:48;3.28;99.99
68248;SHT30;55064;49.636;12.164;2023-12-20T02:05:16;3.27;99.99
68248;SHT30;55064;49.636;12.164;2023-12-20T02:07:42;3.28;99.99
68248;SHT30;55064;49.636;12.164;2023-12-20T02:10:07;3.25;99.99
68248;SHT30;55064;49.636;12.164;2023-12-20T02:12:33;3.28;99.99
68248;SHT30;55064;49.636;12.164;2023-12-20T02:14:58;3.31;99.99
68248;SHT30;55064;49.636;12.164;2023-12-20T02:17:24;3.31;99.99
68248;SHT30;55064;49.636;12.164;2023-12-20T02:19:49;3.29;99.99
68248;SHT30;55064;49.636;12.164;2023-12-20T02:22:15;3.31;99.99
68248;SHT30;55064;49.636;12.164;2023-12-20T02:24:40;3.31;99.99
68248;SHT30;55064;49.636;12.164;2023-12-20T02:27:07;3.32;99.99
68248;SHT30;55064;49.636;12.164;2023-12-20T02:29:33;3.31;99.99
68248;SHT30;55064;49.636;12.164;2023-12-20T02:31:59;3.34;99.99
68248;SHT30;55064;49.636;12.164;2023-12-20T02:34:24;3.34;99.99
68248;SHT30;55064;49.636;12.164;2023-12-20T02:36:50;3.36;99.99
68248;SHT30;55064;49.636;12.164;2023-12-20T02:39:16;3.38;99.99
68248;SHT30;55064;49.636;12.164;2023-12-20T02:41:41;3.36;99.99
68248;SHT30;55064;49.636;12.164;2023-12-20T02:44:06;3.35;99.99
68248;SHT30;55064;49.636;12.164;2023-12-20T02:46:32;3.40;99.99
68248;SHT30;55064;49.636;12.164;2023-12-20T02:48:57;3.40;99.99
68248;SHT30;55064;49.636;12.164;2023-12-20T02:51:22;3.38;99.99
68248;SHT30;55064;49.636;12.164;2023-12-20T02:53:48;3.39;99.99
68248;SHT30;55064;49.636;12.164;2023-12-20T02:56:13;3.40;99.99
68248;SHT30;55064;49.636;12.164;2023-12-20T02:58:40;3.43;99.99
68248;SHT30;55064;49.636;12.164;2023-12-20T03:01:05;3.48;99.99
68248;SHT30;55064;49.636;12.164;2023-12-20T03:03:31;3.51;99.99
68248;SHT30;55064;49.636;12.164;2023-12-20T03:05:57;3.52;99.99
68248;SHT30;55064;49.636;12.164;2023-12-20T03:08:22;3.52;99.99
68248;SHT30;55064;49.636;12.164;2023-12-20T03:10:48;3.55;99.99
68248;SHT30;55064;49.636;12.164;2023-12-20T03:13:13;3.60;99.99
68248;SHT30;55064;49.636;12.164;2023-12-20T03:15:39;3.56;99.99
68248;SHT30;55064;49.636;12.164;2023-12-20T03:18:05;3.56;99.99
68248;SHT30;55064;49.636;12.164;2023-12-20T03:20:30;3.56;99.99
68248;SHT30;55064;49.636;12.164;2023-12-20T03:22:59;3.54;99.99
68248;SHT30;55064;49.636;12.164;2023-12-20T03:25:25;3.52;99.99
68248;SHT30;55064;49.636;12.164;2023-12-20T03:27:50;3.58;99.99
68248;SHT30;55064;49.636;12.164;2023-12-20T03:30:15;3.56;99.99
68248;SHT30;55064;49.636;12.164;2023-12-20T03:32:41;3.59;99.99
68248;SHT30;55064;49.636;12.164;2023-12-20T03:35:06;3.58;99.99
68248;SHT30;55064;49.636;12.164;2023-12-20T03:37:32;3.59;99.99
68248;SHT30;55064;49.636;12.164;2023-12-20T03:39:57;3.56;99.99
68248;SHT30;55064;49.636;12.164;2023-12-20T03:42:22;3.55;99.99
68248;SHT30;55064;49.636;12.164;2023-12-20T03:44:48;3.56;99.99
68248;SHT30;55064;49.636;12.164;2023-12-20T03:47:13;3.56;99.99
68248;SHT30;55064;49.636;12.164;2023-12-20T03:49:38;3.52;99.91
68248;SHT30;55064;49.636;12.164;2023-12-20T03:52:04;3.46;99.85
68248;SHT30;55064;49.636;12.164;2023-12-20T03:54:30;3.46;99.85
68248;SHT30;55064;49.636;12.164;2023-12-20T03:56:55;3.45;99.88
68248;SHT30;55064;49.636;12.164;2023-12-20T03:59:20;3.43;99.99
68248;SHT30;55064;49.636;12.164;2023-12-20T04:01:46;3.42;99.95
68248;SHT30;55064;49.636;12.164;2023-12-20T04:04:11;3.39;99.99
68248;SHT30;55064;49.636;12.164;2023-12-20T04:06:37;3.40;99.99
68248;SHT30;55064;49.636;12.164;2023-12-20T04:09:03;3.39;99.72
68248;SHT30;55064;49.636;12.164;2023-12-20T04:11:28;3.39;99.86
68248;SHT30;55064;49.636;12.164;2023-12-20T04:13:54;3.35;99.99
68248;SHT30;55064;49.636;12.164;2023-12-20T04:16:19;3.35;99.99
68248;SHT30;55064;49.636;12.164;2023-12-20T04:18:44;3.36;99.99
68248;SHT30;55064;49.636;12.164;2023-12-20T04:21:10;3.36;99.99
68248;SHT30;55064;49.636;12.164;2023-12-20T04:23:35;3.31;99.90
68248;SHT30;55064;49.636;12.164;2023-12-20T04:26:01;3.28;99.99
68248;SHT30;55064;49.636;12.164;2023-12-20T04:28:26;3.31;99.99
68248;SHT30;55064;49.636;12.164;2023-12-20T04:30:51;3.27;99.73
68248;SHT30;55064;49.636;12.164;2023-12-20T04:33:17;3.18;99.97
68248;SHT30;55064;49.636;12.164;2023-12-20T04:35:42;3.18;99.99
68248;SHT30;55064;49.636;12.164;2023-12-20T04:38:08;3.19;99.99
68248;SHT30;55064;49.636;12.164;2023-12-20T04:40:34;3.15;99.99
68248;SHT30;55064;49.636;12.164;2023-12-20T04:42:59;3.12;99.97
68248;SHT30;55064;49.636;12.164;2023-12-20T04:45:25;3.11;99.74
68248;SHT30;55064;49.636;12.164;2023-12-20T04:47:51;3.10;99.35
68248;SHT30;55064;49.636;12.164;2023-12-20T04:50:16;3.07;99.63
68248;SHT30;55064;49.636;12.164;2023-12-20T04:52:42;3.05;99.99
68248;SHT30;55064;49.636;12.164;2023-12-20T04:55:07;3.10;99.99
68248;SHT30;55064;49.636;12.164;2023-12-20T04:57:34;3.05;99.99
68248;SHT30;55064;49.636;12.164;2023-12-20T04:59:59;3.07;99.99
68248;SHT30;55064;49.636;12.164;2023-12-20T05:02:25;3.04;99.99
68248;SHT30;55064;49.636;12.164;2023-12-20T05:04:50;3.03;99.88
68248;SHT30;55064;49.636;12.164;2023-12-20T05:07:15;2.99;99.76
68248;SHT30;55064;49.636;12.164;2023-12-20T05:09:41;3.05;99.66
68248;SHT30;55064;49.636;12.164;2023-12-20T05:12:07;3.05;99.56
68248;SHT30;55064;49.636;12.164;2023-12-20T05:14:32;3.07;99.67
68248;SHT30;55064;49.636;12.164;2023-12-20T05:16:58;3.05;99.68
68248;SHT30;55064;49.636;12.164;2023-12-20T05:19:24;3.05;99.90
68248;SHT30;55064;49.636;12.164;2023-12-20T05:21:49;3.00;99.97
68248;SHT30;55064;49.636;12.164;2023-12-20T05:24:15;3.00;99.99
68248;SHT30;55064;49.636;12.164;2023-12-20T05:26:40;3.01;99.99
68248;SHT30;55064;49.636;12.164;2023-12-20T05:29:05;3.03;99.99
68248;SHT30;55064;49.636;12.164;2023-12-20T05:31:31;3.05;99.78
68248;SHT30;55064;49.636;12.164;2023-12-20T05:33:56;3.03;99.99
68248;SHT30;55064;49.636;12.164;2023-12-20T05:36:22;3.03;99.99
68248;SHT30;55064;49.636;12.164;2023-12-20T05:38:47;3.01;99.99
68248;SHT30;55064;49.636;12.164;2023-12-20T05:41:13;3.04;99.99
68248;SHT30;55064;49.636;12.164;2023-12-20T05:43:39;3.00;99.99
68248;SHT30;55064;49.636;12.164;2023-12-20T05:46:04;3.01;99.99
68248;SHT30;55064;49.636;12.164;2023-12-20T05:48:30;2.99;99.99
68248;SHT30;55064;49.636;12.164;2023-12-20T05:50:55;3.01;99.99
68248;SHT30;55064;49.636;12.164;2023-12-20T05:53:21;3.03;99.99
68248;SHT30;55064;49.636;12.164;2023-12-20T05:55:46;3.00;99.99
68248;SHT30;55064;49.636;12.164;2023-12-20T05:58:12;3.01;99.99
68248;SHT30;55064;49.636;12.164;2023-12-20T06:00:37;2.99;99.99
68248;SHT30;55064;49.636;12.164;2023-12-20T06:03:03;3.01;99.99
68248;SHT30;55064;49.636;12.164;2023-12-20T06:05:30;3.01;99.99
68248;SHT30;55064;49.636;12.164;2023-12-20T06:07:55;3.00;99.99
68248;SHT30;55064;49.636;12.164;2023-12-20T06:10:26;2.97;99.99
68248;SHT30;55064;49.636;12.164;2023-12-20T06:12:51;2.96;99.99
68248;SHT30;55064;49.636;12.164;2023-12-20T06:15:17;2.99;99.99
68248;SHT30;55064;49.636;12.164;2023-12-20T06:17:42;3.03;99.99
68248;SHT30;55064;49.636;12.164;2023-12-20T06:20:08;2.99;99.99
68248;SHT30;55064;49.636;12.164;2023-12-20T06:22:35;3.01;99.99
68248;SHT30;55064;49.636;12.164;2023-12-20T06:25:01;3.03;99.99
68248;SHT30;55064;49.636;12.164;2023-12-20T06:27:27;3.03;99.99
68248;SHT30;55064;49.636;12.164;2023-12-20T06:29:52;3.05;99.99
68248;SHT30;55064;49.636;12.164;2023-12-20T06:32:17;3.04;99.99
68248;SHT30;55064;49.636;12.164;2023-12-20T06:34:43;3.05;99.99
68248;SHT30;55064;49.636;12.164;2023-12-20T06:37:08;3.05;99.99
68248;SHT30;55064;49.636;12.164;2023-12-20T06:39:33;3.10;99.99
68248;SHT30;55064;49.636;12.164;2023-12-20T06:41:59;3.08;99.99
68248;SHT30;55064;49.636;12.164;2023-12-20T06:44:25;3.07;99.99
68248;SHT30;55064;49.636;12.164;2023-12-20T06:46:50;3.14;99.99
68248;SHT30;55064;49.636;12.164;2023-12-20T06:49:15;3.11;99.99
68248;SHT30;55064;49.636;12.164;2023-12-20T06:51:41;3.10;99.99
68248;SHT30;55064;49.636;12.164;2023-12-20T06:54:06;3.12;99.99
68248;SHT30;55064;49.636;12.164;2023-12-20T06:56:32;3.10;99.99
68248;SHT30;55064;49.636;12.164;2023-12-20T06:58:57;3.10;99.99
68248;SHT30;55064;49.636;12.164;2023-12-20T07:01:23;3.11;99.99
68248;SHT30;55064;49.636;12.164;2023-12-20T07:03:48;3.11;99.99
68248;SHT30;55064;49.636;12.164;2023-12-20T07:06:14;3.08;99.99
68248;SHT30;55064;49.636;12.164;2023-12-20T07:08:41;3.15;99.99
68248;SHT30;55064;49.636;12.164;2023-12-20T07:11:07;3.10;99.99
68248;SHT30;55064;49.636;12.164;2023-12-20T07:13:32;3.08;99.99
68248;SHT30;55064;49.636;12.164;2023-12-20T07:15:57;3.10;99.99
68248;SHT30;55064;49.636;12.164;2023-12-20T07:18:23;3.07;99.99
68248;SHT30;55064;49.636;12.164;2023-12-20T07:20:48;3.10;99.99
68248;SHT30;55064;49.636;12.164;2023-12-20T07:23:14;3.11;99.99
68248;SHT30;55064;49.636;12.164;2023-12-20T07:25:39;3.08;99.99
68248;SHT30;55064;49.636;12.164;2023-12-20T07:28:05;3.14;99.99
68248;SHT30;55064;49.636;12.164;2023-12-20T07:30:30;3.12;99.99
68248;SHT30;55064;49.636;12.164;2023-12-20T07:32:55;3.14;99.99
68248;SHT30;55064;49.636;12.164;2023-12-20T07:35:22;3.12;99.99
68248;SHT30;55064;49.636;12.164;2023-12-20T07:37:48;3.15;99.99
68248;SHT30;55064;49.636;12.164;2023-12-20T07:40:13;3.15;99.99
68248;SHT30;55064;49.636;12.164;2023-12-20T07:42:39;3.17;99.99
68248;SHT30;55064;49.636;12.164;2023-12-20T07:45:05;3.17;99.99
68248;SHT30;55064;49.636;12.164;2023-12-20T07:47:30;3.18;99.99
68248;SHT30;55064;49.636;12.164;2023-12-20T07:49:56;3.19;99.99
68248;SHT30;55064;49.636;12.164;2023-12-20T07:52:21;3.18;99.99
68248;SHT30;55064;49.636;12.164;2023-12-20T07:54:47;3.24;99.99
68248;SHT30;55064;49.636;12.164;2023-12-20T07:57:13;3.22;99.99
68248;SHT30;55064;49.636;12.164;2023-12-20T07:59:38;3.22;99.99
68248;SHT30;55064;49.636;12.164;2023-12-20T08:02:04;3.21;99.99
68248;SHT30;55064;49.636;12.164;2023-12-20T08:04:29;3.27;99.99
68248;SHT30;55064;49.636;12.164;2023-12-20T08:06:54;3.31;99.99
68248;SHT30;55064;49.636;12.164;2023-12-20T08:09:20;3.29;99.99
68248;SHT30;55064;49.636;12.164;2023-12-20T08:11:46;3.29;99.99
68248;SHT30;55064;49.636;12.164;2023-12-20T08:14:11;3.32;99.99
68248;SHT30;55064;49.636;12.164;2023-12-20T08:16:37;3.35;99.99
68248;SHT30;55064;49.636;12.164;2023-12-20T08:19:02;3.38;99.99
68248;SHT30;55064;49.636;12.164;2023-12-20T08:21:27;3.40;99.99
68248;SHT30;55064;49.636;12.164;2023-12-20T08:23:53;3.39;99.99
68248;SHT30;55064;49.636;12.164;2023-12-20T08:26:19;3.40;99.99
68248;SHT30;55064;49.636;12.164;2023-12-20T08:28:46;3.39;99.99
68248;SHT30;55064;49.636;12.164;2023-12-20T08:31:18;3.43;99.66
68248;SHT30;55064;49.636;12.164;2023-12-20T08:33:44;3.42;99.67
68248;SHT30;55064;49.636;12.164;2023-12-20T08:36:10;3.49;99.59
68248;SHT30;55064;49.636;12.164;2023-12-20T08:38:35;3.49;99.34
68248;SHT30;55064;49.636;12.164;2023-12-20T08:41:01;3.48;99.34
68248;SHT30;55064;49.636;12.164;2023-12-20T08:43:28;3.52;99.31
68248;SHT30;55064;49.636;12.164;2023-12-20T08:45:53;3.51;98.87
68248;SHT30;55064;49.636;12.164;2023-12-20T08:48:19;3.56;98.68
68248;SHT30;55064;49.636;12.164;2023-12-20T08:50:44;3.56;98.47
68248;SHT30;55064;49.636;12.164;2023-12-20T08:53:10;3.62;98.30
68248;SHT30;55064;49.636;12.164;2023-12-20T08:55:35;3.62;98.20
68248;SHT30;55064;49.636;12.164;2023-12-20T08:58:00;3.63;97.67
68248;SHT30;55064;49.636;12.164;2023-12-20T09:00:26;3.66;97.82
68248;SHT30;55064;49.636;12.164;2023-12-20T09:02:53;3.67;97.88
68248;SHT30;55064;49.636;12.164;2023-12-20T09:05:19;3.69;97.91
68248;SHT30;55064;49.636;12.164;2023-12-20T09:07:44;3.77;98.05
68248;SHT30;55064;49.636;12.164;2023-12-20T09:10:09;3.84;97.77
68248;SHT30;55064;49.636;12.164;2023-12-20T09:12:35;3.84;97.81
68248;SHT30;55064;49.636;12.164;2023-12-20T09:15:01;3.86;97.64
68248;SHT30;55064;49.636;12.164;2023-12-20T09:17:28;3.89;98.02
68248;SHT30;55064;49.636;12.164;2023-12-20T09:19:53;3.94;98.25
68248;SHT30;55064;49.636;12.164;2023-12-20T09:22:19;3.91;98.29
68248;SHT30;55064;49.636;12.164;2023-12-20T09:24:44;3.94;97.92
68248;SHT30;55064;49.636;12.164;2023-12-20T09:27:10;3.91;98.21
68248;SHT30;55064;49.636;12.164;2023-12-20T09:29:35;3.93;98.01
68248;SHT30;55064;49.636;12.164;2023-12-20T09:32:01;3.94;98.40
68248;SHT30;55064;49.636;12.164;2023-12-20T09:34:26;3.94;98.45
68248;SHT30;55064;49.636;12.164;2023-12-20T09:36:52;3.97;98.47
68248;SHT30;55064;49.636;12.164;2023-12-20T09:39:19;3.98;98.10
68248;SHT30;55064;49.636;12.164;2023-12-20T09:42:03;3.98;97.88
68248;SHT30;55064;49.636;12.164;2023-12-20T09:44:30;3.95;97.90
68248;SHT30;55064;49.636;12.164;2023-12-20T09:46:57;3.97;98.00
68248;SHT30;55064;49.636;12.164;2023-12-20T09:49:23;4.03;97.76
68248;SHT30;55064;49.636;12.164;2023-12-20T09:51:51;4.12;97.55
68248;SHT30;55064;49.636;12.164;2023-12-20T09:54:18;4.15;97.80
68248;SHT30;55064;49.636;12.164;2023-12-20T09:56:44;4.21;97.54
68248;SHT30;55064;49.636;12.164;2023-12-20T09:59:09;4.14;97.46
68248;SHT30;55064;49.636;12.164;2023-12-20T10:01:35;4.12;96.76
68248;SHT30;55064;49.636;12.164;2023-12-20T10:04:05;4.11;96.66
68248;SHT30;55064;49.636;12.164;2023-12-20T10:06:34;4.11;96.93
68248;SHT30;55064;49.636;12.164;2023-12-20T10:09:00;4.11;97.10
68248;SHT30;55064;49.636;12.164;2023-12-20T10:11:25;4.12;96.82
68248;SHT30;55064;49.636;12.164;2023-12-20T10:13:50;4.14;96.62
68248;SHT30;55064;49.636;12.164;2023-12-20T10:16:16;4.17;96.38
68248;SHT30;55064;49.636;12.164;2023-12-20T10:18:41;4.18;95.72
68248;SHT30;55064;49.636;12.164;2023-12-20T10:21:06;4.24;95.91
68248;SHT30;55064;49.636;12.164;2023-12-20T10:23:35;4.29;95.62
68248;SHT30;55064;49.636;12.164;2023-12-20T10:26:01;4.27;95.04
68248;SHT30;55064;49.636;12.164;2023-12-20T10:28:26;4.35;95.37
68248;SHT30;55064;49.636;12.164;2023-12-20T10:30:54;4.65;94.87
68248;SHT30;55064;49.636;12.164;2023-12-20T10:33:24;4.81;93.69
68248;SHT30;55064;49.636;12.164;2023-12-20T10:35:50;5.15;93.54
68248;SHT30;55064;49.636;12.164;2023-12-20T10:38:17;5.31;92.88
68248;SHT30;55064;49.636;12.164;2023-12-20T10:40:42;5.13;92.98
68248;SHT30;55064;49.636;12.164;2023-12-20T10:43:09;5.01;93.30
68248;SHT30;55064;49.636;12.164;2023-12-20T10:45:35;4.91;92.90
68248;SHT30;55064;49.636;12.164;2023-12-20T10:48:02;4.75;92.71
68248;SHT30;55064;49.636;12.164;2023-12-20T10:50:27;4.76;93.36
68248;SHT30;55064;49.636;12.164;2023-12-20T10:52:56;4.73;93.07
68248;SHT30;55064;49.636;12.164;2023-12-20T10:55:23;4.60;92.79
68248;SHT30;55064;49.636;12.164;2023-12-20T10:57:50;4.46;92.83
68248;SHT30;55064;49.636;12.164;2023-12-20T11:00:17;4.44;93.89
68248;SHT30;55064;49.636;12.164;2023-12-20T11:02:43;4.34;94.81
68248;SHT30;55064;49.636;12.164;2023-12-20T11:10:41;4.07;96.20
68248;SHT30;55064;49.636;12.164;2023-12-20T11:13:14;4.08;96.70
68248;SHT30;55064;49.636;12.164;2023-12-20T11:15:42;4.08;96.66
68248;SHT30;55064;49.636;12.164;2023-12-20T11:18:08;4.01;96.44
68248;SHT30;55064;49.636;12.164;2023-12-20T11:20:38;3.98;96.03
68248;SHT30;55064;49.636;12.164;2023-12-20T11:23:04;3.98;96.42
68248;SHT30;55064;49.636;12.164;2023-12-20T11:25:29;3.97;96.17
68248;SHT30;55064;49.636;12.164;2023-12-20T11:28:11;3.97;96.07
68248;SHT30;55064;49.636;12.164;2023-12-20T11:30:48;3.98;96.84
68248;SHT30;55064;49.636;12.164;2023-12-20T11:33:15;3.98;96.27
68248;SHT30;55064;49.636;12.164;2023-12-20T11:35:41;3.97;95.53
68248;SHT30;55064;49.636;12.164;2023-12-20T11:38:10;4.00;95.39
68248;SHT30;55064;49.636;12.164;2023-12-20T11:40:36;3.97;95.90
68248;SHT30;55064;49.636;12.164;2023-12-20T11:43:02;4.03;96.04
68248;SHT30;55064;49.636;12.164;2023-12-20T11:45:28;4.01;95.92
68248;SHT30;55064;49.636;12.164;2023-12-20T11:47:53;4.08;96.47
68248;SHT30;55064;49.636;12.164;2023-12-20T11:50:20;4.11;96.13
68248;SHT30;55064;49.636;12.164;2023-12-20T11:52:47;4.15;95.61
68248;SHT30;55064;49.636;12.164;2023-12-20T11:55:13;4.14;95.45
68248;SHT30;55064;49.636;12.164;2023-12-20T11:57:38;4.08;95.66
68248;SHT30;55064;49.636;12.164;2023-12-20T12:00:04;4.10;95.71
68248;SHT30;55064;49.636;12.164;2023-12-20T12:02:31;4.14;95.61
68248;SHT30;55064;49.636;12.164;2023-12-20T12:04:57;4.11;95.96
68248;SHT30;55064;49.636;12.164;2023-12-20T12:07:24;4.08;95.70
68248;SHT30;55064;49.636;12.164;2023-12-20T12:09:49;4.14;96.32
68248;SHT30;55064;49.636;12.164;2023-12-20T12:12:14;4.10;95.69
68248;SHT30;55064;49.636;12.164;2023-12-20T12:14:40;4.11;95.41
68248;SHT30;55064;49.636;12.164;2023-12-20T12:17:15;4.05;95.55
68248;SHT30;55064;49.636;12.164;2023-12-20T12:19:41;4.05;95.58
68248;SHT30;55064;49.636;12.164;2023-12-20T12:22:12;4.07;95.98
68248;SHT30;55064;49.636;12.164;2023-12-20T12:24:45;4.11;95.80
68248;SHT30;55064;49.636;12.164;2023-12-20T12:27:14;4.10;95.79
68248;SHT30;55064;49.636;12.164;2023-12-20T12:29:39;4.12;95.93
68248;SHT30;55064;49.636;12.164;2023-12-20T12:32:06;4.17;96.44
68248;SHT30;55064;49.636;12.164;2023-12-20T12:34:32;4.18;95.61
68248;SHT30;55064;49.636;12.164;2023-12-20T12:36:59;4.14;95.37
68248;SHT30;55064;49.636;12.164;2023-12-20T12:39:25;4.11;95.48
68248;SHT30;55064;49.636;12.164;2023-12-20T12:41:50;4.07;95.52
68248;SHT30;55064;49.636;12.164;2023-12-20T12:44:16;4.04;95.31
68248;SHT30;55064;49.636;12.164;2023-12-20T12:46:43;4.10;95.42
68248;SHT30;55064;49.636;12.164;2023-12-20T12:49:08;4.08;95.59
68248;SHT30;55064;49.636;12.164;2023-12-20T12:51:34;4.07;95.69
68248;SHT30;55064;49.636;12.164;2023-12-20T12:53:59;4.10;95.21
68248;SHT30;55064;49.636;12.164;2023-12-20T12:56:24;4.08;95.33
68248;SHT30;55064;49.636;12.164;2023-12-20T12:58:50;4.05;95.24
68248;SHT30;55064;49.636;12.164;2023-12-20T13:01:15;4.08;95.07
68248;SHT30;55064;49.636;12.164;2023-12-20T13:03:40;4.07;95.00
68248;SHT30;55064;49.636;12.164;2023-12-20T13:06:06;4.08;95.34
68248;SHT30;55064;49.636;12.164;2023-12-20T13:08:34;4.07;95.33
68248;SHT30;55064;49.636;12.164;2023-12-20T13:10:59;4.07;95.77
68248;SHT30;55064;49.636;12.164;2023-12-20T13:13:26;4.04;94.96
68248;SHT30;55064;49.636;12.164;2023-12-20T13:15:52;4.05;95.13
68248;SHT30;55064;49.636;12.164;2023-12-20T13:18:20;4.07;94.39
68248;SHT30;55064;49.636;12.164;2023-12-20T13:20:46;4.04;94.49
68248;SHT30;55064;49.636;12.164;2023-12-20T13:23:11;4.07;94.16
68248;SHT30;55064;49.636;12.164;2023-12-20T13:25:36;4.08;94.44
68248;SHT30;55064;49.636;12.164;2023-12-20T13:28:02;4.04;95.10
68248;SHT30;55064;49.636;12.164;2023-12-20T13:30:30;4.05;94.77
68248;SHT30;55064;49.636;12.164;2023-12-20T13:32:56;4.03;94.76
68248;SHT30;55064;49.636;12.164;2023-12-20T13:35:21;4.01;94.55
68248;SHT30;55064;49.636;12.164;2023-12-20T13:37:46;3.94;94.98
68248;SHT30;55064;49.636;12.164;2023-12-20T13:40:12;3.93;95.13
68248;SHT30;55064;49.636;12.164;2023-12-20T13:42:40;3.90;95.10
68248;SHT30;55064;49.636;12.164;2023-12-20T13:45:07;3.93;95.31
68248;SHT30;55064;49.636;12.164;2023-12-20T13:47:33;3.89;95.41
68248;SHT30;55064;49.636;12.164;2023-12-20T13:49:58;3.91;95.53
68248;SHT30;55064;49.636;12.164;2023-12-20T13:52:23;3.91;95.48
68248;SHT30;55064;49.636;12.164;2023-12-20T13:54:49;3.93;95.60
68248;SHT30;55064;49.636;12.164;2023-12-20T13:57:14;3.97;95.43
68248;SHT30;55064;49.636;12.164;2023-12-20T13:59:39;4.03;95.61
68248;SHT30;55064;49.636;12.164;2023-12-20T14:02:05;4.05;95.08
68248;SHT30;55064;49.636;12.164;2023-12-20T14:04:30;4.04;95.49
68248;SHT30;55064;49.636;12.164;2023-12-20T14:06:56;4.07;95.41
68248;SHT30;55064;49.636;12.164;2023-12-20T14:09:22;4.04;95.16
68248;SHT30;55064;49.636;12.164;2023-12-20T14:11:47;4.04;95.05
68248;SHT30;55064;49.636;12.164;2023-12-20T14:14:12;4.05;95.17
68248;SHT30;55064;49.636;12.164;2023-12-20T14:16:38;4.04;95.06
68248;SHT30;55064;49.636;12.164;2023-12-20T14:19:03;4.05;94.94
68248;SHT30;55064;49.636;12.164;2023-12-20T14:21:31;4.05;93.69
68248;SHT30;55064;49.636;12.164;2023-12-20T14:23:56;4.10;93.95
68248;SHT30;55064;49.636;12.164;2023-12-20T14:26:22;4.10;93.47
68248;SHT30;55064;49.636;12.164;2023-12-20T14:28:47;4.03;93.46
68248;SHT30;55064;49.636;12.164;2023-12-20T14:31:12;3.97;93.24
68248;SHT30;55064;49.636;12.164;2023-12-20T14:33:38;3.93;93.83
68248;SHT30;55064;49.636;12.164;2023-12-20T14:36:05;3.90;94.36
68248;SHT30;55064;49.636;12.164;2023-12-20T14:38:33;3.94;94.67
68248;SHT30;55064;49.636;12.164;2023-12-20T14:40:59;3.90;94.69
68248;SHT30;55064;49.636;12.164;2023-12-20T14:43:25;3.86;94.59
68248;SHT30;55064;49.636;12.164;2023-12-20T14:45:51;3.89;94.67
68248;SHT30;55064;49.636;12.164;2023-12-20T14:48:17;3.84;94.61
68248;SHT30;55064;49.636;12.164;2023-12-20T14:50:43;3.89;94.59
68248;SHT30;55064;49.636;12.164;2023-12-20T14:53:09;3.84;94.45
68248;SHT30;55064;49.636;12.164;2023-12-20T14:55:34;3.82;94.72
68248;SHT30;55064;49.636;12.164;2023-12-20T14:58:00;3.82;94.08
68248;SHT30;55064;49.636;12.164;2023-12-20T15:00:26;3.77;94.33
68248;SHT30;55064;49.636;12.164;2023-12-20T15:02:51;3.79;94.25
68248;SHT30;55064;49.636;12.164;2023-12-20T15:05:19;3.79;93.74
68248;SHT30;55064;49.636;12.164;2023-12-20T15:07:44;3.79;94.00
68248;SHT30;55064;49.636;12.164;2023-12-20T15:10:09;3.74;94.21
68248;SHT30;55064;49.636;12.164;2023-12-20T15:12:35;3.76;93.98
68248;SHT30;55064;49.636;12.164;2023-12-20T15:15:00;3.76;94.06
68248;SHT30;55064;49.636;12.164;2023-12-20T15:17:26;3.72;93.91
68248;SHT30;55064;49.636;12.164;2023-12-20T15:19:52;3.77;93.29
68248;SHT30;55064;49.636;12.164;2023-12-20T15:22:17;3.77;92.99
68248;SHT30;55064;49.636;12.164;2023-12-20T15:24:42;3.80;93.17
68248;SHT30;55064;49.636;12.164;2023-12-20T15:27:10;3.79;93.27